Time;durP1;ratioP1;P1;durP2;ratioP2;P2;SDS_P1;SDS_P2;PMS_P1;PMS_P2;Temp;Humidity;BMP_temperature;BMP_pressure;BME280_temperature;BME280_humidity;BME280_pressure;Samples;Min_cycle;Max_cycle;Signal;HPM_P1;HPM_P2
2022/11/19 00:04:57;;;;;;;11.60;8.30;;;;;;;2.14;58.28;98224.80;226763;1241;138837;-62
2022/11/19 00:10:00;;;;;;;13.00;9.10;;;;;;;2.12;58.33;98226.79;226624;1234;138684;-65
2022/11/19 00:15:05;;;;;;;12.10;8.10;;;;;;;2.12;58.41;98219.77;227716;1242;138424;-64
2022/11/19 00:20:13;;;;;;;13.60;8.40;;;;;;;2.11;58.41;98226.98;226700;1245;139242;-63
2022/11/19 00:25:16;;;;;;;13.80;8.40;;;;;;;2.13;58.09;98227.29;226756;1252;138459;-64
2022/11/19 00:30:19;;;;;;;11.00;7.90;;;;;;;2.14;58.24;98237.55;226812;1249;138820;-67
2022/11/19 00:35:42;;;;;;;11.90;7.80;;;;;;;2.12;57.99;98239.73;226866;1244;138909;-63
2022/11/19 00:40:45;;;;;;;11.90;7.10;;;;;;;2.10;57.68;98242.10;226656;1237;138316;-63
2022/11/19 00:45:49;;;;;;;11.80;7.60;;;;;;;2.07;57.74;98241.86;227704;1242;139047;-63
2022/11/19 00:50:52;;;;;;;9.90;7.80;;;;;;;2.05;57.56;98242.09;227472;1230;139004;-65
2022/11/19 00:55:58;;;;;;;11.70;7.20;;;;;;;2.04;57.58;98246.20;226694;1238;138748;-64
2022/11/19 01:01:02;;;;;;;11.40;7.20;;;;;;;2.04;57.57;98239.73;226617;1252;138603;-65
2022/11/19 01:06:07;;;;;;;15.60;8.20;;;;;;;2.04;57.43;98240.73;226595;1251;139285;-66
2022/11/19 01:11:13;;;;;;;10.70;7.80;;;;;;;2.08;57.27;98244.09;227770;1230;138453;-65
2022/11/19 01:16:20;;;;;;;10.40;7.10;;;;;;;2.08;57.09;98245.66;226561;1243;138232;-64
2022/11/19 01:21:26;;;;;;;13.30;8.30;;;;;;;2.07;57.28;98254.10;226618;1228;138230;-65
2022/11/19 01:26:29;;;;;;;10.50;7.70;;;;;;;2.08;57.54;98256.67;226897;1235;138913;-67
2022/11/19 01:31:32;;;;;;;10.90;8.00;;;;;;;2.06;57.77;98259.73;226757;1241;138332;-68
2022/11/19 01:36:35;;;;;;;12.20;7.50;;;;;;;2.05;57.99;98263.45;226527;1240;139074;-66
2022/11/19 01:41:38;;;;;;;14.10;8.10;;;;;;;2.03;57.92;98263.17;226550;1238;138209;-61
2022/11/19 01:46:41;;;;;;;12.90;8.40;;;;;;;2.03;57.94;98261.61;226649;1252;138268;-61
2022/11/19 01:51:54;;;;;;;12.40;8.30;;;;;;;2.02;58.16;98265.36;226780;1245;139655;-60
2022/11/19 01:57:05;;;;;;;12.00;8.00;;;;;;;2.01;58.20;98265.39;226840;1249;138342;-60
2022/11/19 02:02:08;;;;;;;13.60;8.80;;;;;;;2.00;58.12;98273.11;226713;1245;139097;-60
2022/11/19 02:07:12;;;;;;;13.10;8.40;;;;;;;1.96;58.43;98273.11;227553;1248;140169;-64
2022/11/19 02:12:26;;;;;;;13.80;8.60;;;;;;;1.94;58.35;98288.57;226267;1243;138249;-64
2022/11/19 02:17:34;;;;;;;11.70;8.40;;;;;;;1.94;58.45;98289.63;226347;1251;138294;-61
2022/11/19 02:23:20;;;;;;;12.00;8.40;;;;;;;1.91;58.57;98302.87;226658;1240;140544;-62
2022/11/19 02:28:29;;;;;;;12.50;8.40;;;;;;;1.88;58.39;98307.70;226709;1241;137885;-62
2022/11/19 02:33:43;;;;;;;10.70;8.30;;;;;;;1.88;58.44;98318.35;226388;1252;137882;-61
2022/11/19 02:39:05;;;;;;;13.50;8.30;;;;;;;1.84;58.33;98328.64;226432;1237;137995;-61
2022/11/19 02:49:55;;;;;;;12.60;9.10;;;;;;;1.79;58.45;98331.99;226368;1252;138382;-60
2022/11/19 02:55:01;;;;;;;13.80;9.70;;;;;;;1.78;58.83;98335.17;226735;1241;138195;-62
2022/11/19 03:05:32;;;;;;;15.00;9.80;;;;;;;1.78;59.07;98351.80;226844;1252;138025;-61
2022/11/19 03:11:05;;;;;;;12.00;9.50;;;;;;;1.79;59.37;98362.95;226757;1240;138946;-62
2022/11/19 03:21:49;;;;;;;13.80;9.30;;;;;;;1.76;59.08;98364.98;226726;1241;138673;-61
2022/11/19 03:27:15;;;;;;;13.40;9.80;;;;;;;1.77;59.56;98366.36;226783;1254;138124;-61
2022/11/19 03:32:21;;;;;;;;;;;;;;;1.78;59.20;98367.89;226814;1241;138398;-60
2022/11/19 03:37:27;;;;;;;13.80;10.20;;;;;;;1.78;59.83;98375.23;226859;1255;124105;-63
2022/11/19 03:42:30;;;;;;;14.50;9.30;;;;;;;1.78;59.68;98375.91;226580;1240;138565;-62
2022/11/19 03:47:36;;;;;;;14.90;10.30;;;;;;;1.76;59.05;98380.73;226668;1240;139276;-62
2022/11/19 03:52:41;;;;;;;13.40;10.00;;;;;;;1.74;59.45;98388.12;226458;1234;138313;-63
2022/11/19 03:57:45;;;;;;;15.80;10.30;;;;;;;1.75;59.28;98391.42;226799;1254;139375;-64
2022/11/19 04:02:48;;;;;;;13.30;9.60;;;;;;;1.72;59.20;98397.31;226834;1244;138463;-65
2022/11/19 04:07:51;;;;;;;17.30;10.60;;;;;;;1.73;59.55;98396.06;226613;1245;138128;-63
2022/11/19 04:12:53;;;;;;;119.90;75.60;;;;;;;1.78;60.26;98397.92;226580;1254;139275;-62
2022/11/19 04:17:56;;;;;;;20.60;12.90;;;;;;;1.83;60.33;98400.06;226968;1249;138679;-61
2022/11/19 04:22:59;;;;;;;15.50;11.00;;;;;;;1.88;59.70;98408.08;227394;1234;139066;-61
2022/11/19 04:28:03;;;;;;;126.10;74.20;;;;;;;1.84;59.95;98418.54;226455;1233;138462;-63
2022/11/19 04:33:05;;;;;;;18.80;12.90;;;;;;;1.88;60.37;98415.77;226569;1241;140251;-64
2022/11/19 04:38:08;;;;;;;17.20;11.50;;;;;;;1.92;59.33;98416.31;226852;1252;138894;-61
2022/11/19 04:43:11;;;;;;;17.60;11.10;;;;;;;1.87;59.24;98427.88;226742;1235;138708;-61
2022/11/19 04:48:14;;;;;;;16.50;11.40;;;;;;;1.78;59.02;98430.99;226832;1238;139249;-63
2022/11/19 04:53:17;;;;;;;18.10;11.50;;;;;;;1.70;58.86;98432.35;226639;1250;139474;-66
2022/11/19 04:58:20;;;;;;;15.70;10.90;;;;;;;1.69;58.83;98430.27;227664;1248;138422;-61
2022/11/19 05:03:23;;;;;;;16.20;10.30;;;;;;;1.71;58.84;98441.41;226737;1247;138158;-61
2022/11/19 05:08:27;;;;;;;17.70;10.30;;;;;;;1.68;58.78;98453.41;226864;1241;138497;-63
2022/11/19 05:13:30;;;;;;;17.70;12.00;;;;;;;1.72;60.05;98458.69;226681;1249;139310;-62
2022/11/19 05:18:32;;;;;;;16.20;10.40;;;;;;;1.76;58.60;98462.58;227677;1236;138603;-65
2022/11/19 05:23:35;;;;;;;15.20;10.70;;;;;;;1.71;58.63;98465.69;227787;1238;138992;-63
2022/11/19 05:28:38;;;;;;;25.40;17.70;;;;;;;1.68;58.74;98484.89;227667;1227;138900;-62
2022/11/19 05:33:42;;;;;;;14.50;10.80;;;;;;;1.79;59.61;98498.63;227728;1234;139061;-61
2022/11/19 05:38:45;;;;;;;15.10;11.40;;;;;;;1.86;58.74;98506.27;227693;1245;138240;-61
2022/11/19 05:43:48;;;;;;;16.50;11.30;;;;;;;1.85;58.86;98505.41;226529;1250;138789;-64
2022/11/19 05:48:51;;;;;;;16.50;11.10;;;;;;;1.85;58.59;98516.44;226792;1252;138030;-67
2022/11/19 05:53:54;;;;;;;16.90;11.70;;;;;;;1.75;58.44;98523.81;226812;1251;139019;-64
2022/11/19 05:58:57;;;;;;;16.80;11.30;;;;;;;1.77;58.85;98528.98;226974;1252;138731;-62
2022/11/19 06:04:00;;;;;;;16.00;10.90;;;;;;;1.76;58.78;98539.84;226839;1234;138622;-61
2022/11/19 06:09:03;;;;;;;15.50;11.30;;;;;;;1.79;59.06;98546.55;226903;1249;138723;-63
2022/11/19 06:14:06;;;;;;;17.00;12.20;;;;;;;1.78;59.12;98554.98;226845;1249;138490;-62
2022/11/19 06:19:10;;;;;;;18.60;11.20;;;;;;;1.78;59.14;98567.94;226614;1237;139663;-62
2022/11/19 06:24:13;;;;;;;15.50;11.50;;;;;;;1.78;59.61;98575.96;226823;1253;138692;-63
2022/11/19 06:29:17;;;;;;;15.30;10.90;;;;;;;1.80;59.50;98575.73;226946;1255;137855;-62
2022/11/19 06:34:20;;;;;;;19.00;11.90;;;;;;;1.81;58.90;98580.08;226511;1243;138639;-62
2022/11/19 06:39:23;;;;;;;14.90;11.30;;;;;;;1.81;59.03;98582.34;227648;1234;139213;-63
2022/11/19 06:44:26;;;;;;;13.50;10.60;;;;;;;1.86;59.32;98592.33;226254;1253;138409;-61
2022/11/19 06:49:29;;;;;;;15.60;9.20;;;;;;;1.84;59.74;98611.60;226866;1235;138577;-63
2022/11/19 06:54:32;;;;;;;16.50;9.60;;;;;;;1.82;59.60;98624.09;226858;1254;138179;-67
2022/11/19 06:59:39;;;;;;;15.40;10.30;;;;;;;1.82;59.87;98623.55;226891;1255;138972;-65
2022/11/19 07:04:42;;;;;;;15.70;10.40;;;;;;;1.83;59.93;98631.77;226731;1238;138417;-65
2022/11/19 07:09:45;;;;;;;13.30;9.60;;;;;;;1.85;60.02;98641.67;226795;1249;139288;-66
2022/11/19 07:14:48;;;;;;;13.50;9.50;;;;;;;1.85;59.56;98643.61;226769;1234;138513;-66
2022/11/19 07:19:54;;;;;;;12.10;8.60;;;;;;;1.82;59.48;98642.44;226502;1234;138488;-66
2022/11/19 07:24:57;;;;;;;11.80;8.70;;;;;;;1.82;59.31;98647.02;226499;1245;138140;-66
2022/11/19 07:30:01;;;;;;;11.30;8.10;;;;;;;1.80;59.16;98650.76;226286;1236;139182;-67
2022/11/19 07:35:05;;;;;;;15.30;9.10;;;;;;;1.79;58.98;98650.78;226637;1239;138646;-62
2022/11/19 07:40:09;;;;;;;13.40;9.10;;;;;;;1.78;59.21;98651.36;226746;1252;138871;-62
2022/11/19 07:45:12;;;;;;;10.10;8.00;;;;;;;1.78;59.15;98655.89;226868;1241;138909;-64
2022/11/19 07:50:16;;;;;;;11.40;7.80;;;;;;;1.77;58.99;98659.62;226608;1234;138284;-63
2022/11/19 07:55:19;;;;;;;11.70;8.50;;;;;;;1.76;58.82;98661.91;227651;1242;138729;-62
2022/11/19 08:00:23;;;;;;;15.10;8.50;;;;;;;1.74;58.96;98666.88;226525;1240;138229;-64
2022/11/19 08:05:26;;;;;;;11.80;8.20;;;;;;;1.73;58.93;98668.98;227538;1245;138230;-62
2022/11/19 08:10:29;;;;;;;13.00;8.80;;;;;;;1.75;59.08;98669.64;227659;1242;139289;-63
2022/11/19 08:15:33;;;;;;;14.60;8.90;;;;;;;1.78;59.27;98671.81;226550;1249;138624;-62
2022/11/19 08:20:44;;;;;;;13.90;9.70;;;;;;;1.81;59.34;98674.50;227494;1242;138646;-62
2022/11/19 08:25:47;;;;;;;13.60;10.10;;;;;;;1.82;59.29;98675.34;226375;1228;137924;-63
2022/11/19 08:30:50;;;;;;;15.10;9.40;;;;;;;1.83;59.43;98674.45;226615;1234;139211;-63
2022/11/19 08:35:54;;;;;;;14.50;10.10;;;;;;;1.81;59.29;98677.66;226891;1237;138528;-64
2022/11/19 08:46:19;;;;;;;14.50;9.60;;;;;;;1.83;59.53;98684.05;226866;1244;138284;-62
2022/11/19 08:51:22;;;;;;;14.20;9.30;;;;;;;1.85;59.43;98688.53;226777;1238;138020;-61
2022/11/19 08:56:25;;;;;;;13.80;9.20;;;;;;;1.87;59.36;98699.50;226905;1234;138562;-63
2022/11/19 09:01:28;;;;;;;13.60;9.80;;;;;;;1.90;58.87;98700.45;226686;1249;138142;-63
2022/11/19 09:06:34;;;;;;;15.00;10.10;;;;;;;1.93;58.86;98710.85;226578;1250;138283;-63
2022/11/19 09:11:37;;;;;;;16.50;9.70;;;;;;;1.96;59.00;98714.08;227700;1242;138501;-63
2022/11/19 09:16:44;;;;;;;13.00;9.40;;;;;;;1.98;58.97;98712.81;226617;1243;138462;-64
2022/11/19 09:21:48;;;;;;;15.10;10.40;;;;;;;1.98;58.91;98707.39;226544;1249;138678;-63
2022/11/19 09:26:51;;;;;;;14.40;10.80;;;;;;;2.02;58.32;98711.08;227602;1241;139168;-61
2022/11/19 09:31:56;;;;;;;12.90;9.80;;;;;;;2.07;58.39;98718.98;227577;1234;138785;-62
2022/11/19 09:37:00;;;;;;;13.90;10.20;;;;;;;2.08;58.21;98723.14;227552;1242;138663;-64
2022/11/19 09:42:21;;;;;;;15.00;10.50;;;;;;;2.10;58.37;98721.66;226802;1233;139460;-62
2022/11/19 09:47:38;;;;;;;18.10;11.40;;;;;;;2.12;58.42;98718.64;226604;1240;138488;-62
2022/11/19 09:52:46;;;;;;;14.20;10.30;;;;;;;2.11;58.43;98719.52;226886;1233;139632;-62
2022/11/19 09:57:53;;;;;;;15.50;10.20;;;;;;;2.15;57.89;98726.59;226845;1233;138472;-62
2022/11/19 10:02:59;;;;;;;15.10;10.40;;;;;;;2.16;57.12;98731.63;226818;1245;139019;-64
2022/11/19 10:08:30;;;;;;;15.10;10.60;;;;;;;2.17;56.98;98731.77;226705;1249;138839;-62
2022/11/19 10:14:06;;;;;;;19.00;11.40;;;;;;;2.18;56.73;98731.20;226841;1234;138800;-66
2022/11/19 10:19:36;;;;;;;16.90;11.20;;;;;;;2.24;56.50;98728.91;226705;1227;139171;-66
2022/11/19 10:24:46;;;;;;;14.10;10.70;;;;;;;2.21;55.93;98725.52;226203;1235;138722;-69
2022/11/19 10:29:55;;;;;;;16.60;11.10;;;;;;;2.19;55.66;98729.08;226471;1250;138599;-61
2022/11/19 10:35:07;;;;;;;14.50;10.80;;;;;;;2.22;56.03;98726.70;227786;1242;138634;-62
2022/11/19 10:40:18;;;;;;;18.00;11.00;;;;;;;2.31;56.25;98724.27;226684;1238;139032;-61
2022/11/19 10:45:27;;;;;;;13.80;10.50;;;;;;;2.36;56.19;98724.28;226681;1252;138493;-62
2022/11/19 10:50:30;;;;;;;14.00;10.20;;;;;;;2.42;56.32;98721.83;226633;1234;138610;-66
2022/11/19 10:55:39;;;;;;;16.30;10.50;;;;;;;2.48;56.24;98717.09;226789;1252;138632;-62
2022/11/19 11:00:43;;;;;;;18.40;14.10;;;;;;;2.51;56.19;98714.84;226467;1238;138770;-65
2022/11/19 11:06:02;;;;;;;25.20;17.30;;;;;;;2.66;57.05;98712.74;226674;1241;138586;-63
2022/11/19 11:11:05;;;;;;;16.20;12.20;;;;;;;2.73;56.01;98707.09;226875;1234;139662;-64
2022/11/19 11:16:15;;;;;;;16.40;11.30;;;;;;;2.72;55.91;98710.98;226625;1249;138441;-62
2022/11/19 11:21:35;;;;;;;15.40;11.50;;;;;;;2.69;55.76;98711.94;226649;1249;139621;-64
2022/11/19 11:26:39;;;;;;;18.10;11.60;;;;;;;2.60;55.54;98716.11;226668;1250;138478;-61
2022/11/19 11:31:46;;;;;;;18.60;11.60;;;;;;;2.54;55.94;98724.73;226671;1238;139034;-64
2022/11/19 11:36:49;;;;;;;20.10;12.30;;;;;;;2.54;55.96;98727.73;227502;1242;139108;-61
2022/11/19 11:41:53;;;;;;;14.60;11.20;;;;;;;2.55;56.10;98729.05;226482;1251;139071;-63
2022/11/19 11:47:17;;;;;;;17.70;11.80;;;;;;;2.55;56.30;98732.95;226309;1245;138936;-61
2022/11/19 11:52:27;;;;;;;18.80;11.60;;;;;;;2.53;55.68;98731.60;226259;1236;138626;-64
2022/11/19 11:57:49;;;;;;;17.40;11.80;;;;;;;2.50;55.87;98733.25;226639;1237;139394;-62
2022/11/19 12:03:02;;;;;;;215.80;117.10;;;;;;;2.52;56.50;98731.46;226311;1249;138235;-61
2022/11/19 12:08:12;;;;;;;19.20;13.60;;;;;;;2.58;56.71;98728.45;226211;1245;140070;-64
2022/11/19 12:13:29;;;;;;;17.50;12.70;;;;;;;2.57;56.65;98734.42;226269;1238;138732;-65
2022/11/19 12:19:00;;;;;;;18.50;12.30;;;;;;;2.51;56.57;98739.72;226530;1249;138617;-63
2022/11/19 12:24:16;;;;;;;17.50;12.10;;;;;;;2.40;55.95;98746.56;226730;1238;138546;-65
2022/11/19 12:29:49;;;;;;;17.40;12.40;;;;;;;2.41;56.12;98744.78;226763;1249;138992;-63
2022/11/19 12:35:00;;;;;;;19.70;12.40;;;;;;;2.49;56.18;98751.16;226455;1237;139120;-62
2022/11/19 12:40:15;;;;;;;17.20;12.70;;;;;;;2.54;56.27;98748.20;226599;1249;139050;-60
2022/11/19 12:45:38;;;;;;;23.10;12.40;;;;;;;2.58;56.14;98753.50;226296;1243;139598;-64
2022/11/19 12:50:54;;;;;;;21.90;13.40;;;;;;;2.56;56.23;98761.77;226612;1249;138868;-61
2022/11/19 12:56:18;;;;;;;19.10;12.70;;;;;;;2.55;56.17;98762.52;227594;1225;139026;-62
2022/11/19 13:01:27;;;;;;;20.90;12.40;;;;;;;2.57;56.60;98761.05;227586;1226;138308;-62
2022/11/19 13:06:39;;;;;;;20.20;13.30;;;;;;;2.61;56.69;98763.35;226468;1234;138723;-62
2022/11/19 13:11:52;;;;;;;177.00;96.50;;;;;;;2.64;56.57;98762.02;227557;1234;139748;-62
2022/11/19 13:16:57;;;;;;;27.40;14.40;;;;;;;2.67;56.04;98765.09;226712;1238;139258;-63
2022/11/19 13:22:15;;;;;;;70.10;42.30;;;;;;;2.60;56.43;98765.33;226632;1234;246382;-63
2022/11/19 13:27:22;;;;;;;25.60;16.30;;;;;;;2.56;57.53;98771.08;226672;1234;138293;-64
2022/11/19 13:32:30;;;;;;;25.40;16.80;;;;;;;2.60;56.75;98775.48;226817;1248;138521;-62
2022/11/19 13:38:10;;;;;;;23.20;15.40;;;;;;;2.56;56.85;98772.32;227346;1234;139267;-65
2022/11/19 13:48:56;;;;;;;27.20;16.80;;;;;;;2.43;56.69;98784.63;226442;1249;138881;-64
2022/11/19 13:54:03;;;;;;;23.80;16.60;;;;;;;2.46;56.96;98788.20;227477;1232;138497;-62
2022/11/19 13:59:07;;;;;;;25.70;15.60;;;;;;;2.49;56.66;98789.52;226512;1249;138442;-65
2022/11/19 14:04:38;;;;;;;22.70;14.40;;;;;;;2.49;56.70;98800.53;226609;1234;139111;-64
2022/11/19 14:10:20;;;;;;;22.80;14.50;;;;;;;2.48;56.44;98804.44;226058;1251;139238;-64
2022/11/19 14:27:00;;;;;;;21.40;13.80;;;;;;;2.47;57.34;98788.38;226320;1240;139708;-63
2022/11/19 14:32:05;;;;;;;29.40;18.10;;;;;;;2.53;58.06;98791.32;226281;1244;138564;-62
2022/11/19 14:37:23;;;;;;;20.40;14.50;;;;;;;2.46;57.09;98790.30;226576;1235;138807;-63
2022/11/19 14:42:27;;;;;;;21.80;13.90;;;;;;;2.44;57.43;98797.73;227584;1242;138575;-63
2022/11/19 14:47:37;;;;;;;21.70;13.90;;;;;;;2.37;57.06;98799.88;226755;1234;138545;-63
2022/11/19 14:52:59;;;;;;;39.10;26.10;;;;;;;2.31;56.79;98805.14;226549;1238;138600;-64
2022/11/19 14:58:23;;;;;;;51.10;28.20;;;;;;;2.32;57.27;98809.33;226602;1244;139529;-65
2022/11/19 15:03:27;;;;;;;23.20;14.40;;;;;;;2.42;57.27;98813.38;226711;1234;138432;-63
2022/11/19 15:08:47;;;;;;;25.70;14.10;;;;;;;2.31;56.73;98818.83;226614;1240;138865;-67
2022/11/19 15:14:27;;;;;;;23.90;14.50;;;;;;;2.22;56.96;98817.70;227601;1233;139521;-62
2022/11/19 15:19:44;;;;;;;23.10;14.00;;;;;;;2.24;57.28;98825.17;226607;1234;139233;-64
2022/11/19 15:25:04;;;;;;;22.90;13.80;;;;;;;2.19;57.29;98822.54;227584;1233;139112;-66
2022/11/19 15:30:19;;;;;;;21.60;13.60;;;;;;;2.24;57.56;98818.16;227620;1241;138791;-66
2022/11/19 15:35:53;;;;;;;20.60;14.00;;;;;;;2.18;57.38;98830.25;226615;1237;138638;-62
2022/11/19 15:40:59;;;;;;;19.40;12.60;;;;;;;2.15;57.64;98832.62;226183;1235;139073;-64
2022/11/19 15:46:09;;;;;;;22.50;13.00;;;;;;;2.14;58.05;98825.32;225930;1239;139101;-62
2022/11/19 15:51:15;;;;;;;40.60;25.80;;;;;;;2.17;58.77;98818.57;226547;1240;139422;-61
2022/11/19 15:56:18;;;;;;;22.90;12.90;;;;;;;2.15;57.99;98820.55;226573;1249;139012;-62
2022/11/19 16:01:22;;;;;;;23.50;14.00;;;;;;;2.04;57.97;98824.73;226806;1248;138253;-63
2022/11/19 16:06:30;;;;;;;17.40;12.50;;;;;;;2.01;58.29;98830.77;226771;1234;138889;-62
2022/11/19 16:17:31;;;;;;;29.60;19.50;;;;;;;2.06;59.32;98829.39;226619;1245;139086;-64
2022/11/19 16:22:44;;;;;;;29.60;15.20;;;;;;;2.01;58.67;98830.27;226562;1240;138778;-61
2022/11/19 16:27:47;;;;;;;22.60;14.90;;;;;;;1.97;58.58;98827.95;226830;1246;138296;-62
2022/11/19 16:32:54;;;;;;;25.00;15.30;;;;;;;1.92;58.73;98826.86;226569;1249;138371;-62
2022/11/19 16:38:00;;;;;;;31.00;16.30;;;;;;;1.82;59.08;98824.19;226691;1249;138980;-61
2022/11/19 16:43:04;;;;;;;;;;;;;;;1.71;59.32;98825.38;226836;1249;138872;-62
2022/11/19 16:48:45;;;;;;;29.20;16.20;;;;;;;1.60;59.51;98832.36;227590;1226;124737;-63
2022/11/19 16:53:57;;;;;;;25.00;15.50;;;;;;;1.49;59.66;98827.61;227540;1242;138494;-61
2022/11/19 16:59:03;;;;;;;30.30;16.90;;;;;;;1.42;59.85;98826.58;227664;1227;139127;-62
2022/11/19 17:04:09;;;;;;;24.10;16.20;;;;;;;1.40;59.88;98817.02;226412;1244;138811;-61
2022/11/19 17:09:28;;;;;;;;;;;;;;;1.38;59.90;98818.31;226413;1246;138516;-62
2022/11/19 17:14:33;;;;;;;27.20;16.10;;;;;;;1.32;60.16;98816.73;226840;1249;218466;-61
2022/11/19 17:19:36;;;;;;;104.30;58.20;;;;;;;1.33;60.95;98817.92;226594;1250;139033;-63
2022/11/19 17:24:42;;;;;;;31.90;18.80;;;;;;;1.44;61.10;98819.02;227595;1242;138917;-62
2022/11/19 17:29:45;;;;;;;28.00;16.90;;;;;;;1.43;60.56;98816.06;226890;1244;138075;-62
2022/11/19 17:34:49;;;;;;;31.80;18.30;;;;;;;1.39;60.35;98817.59;226594;1249;138782;-61
2022/11/19 17:39:52;;;;;;;31.60;19.00;;;;;;;1.35;60.42;98821.20;226448;1245;138631;-63
2022/11/19 17:44:54;;;;;;;37.20;19.10;;;;;;;1.34;60.36;98827.67;226712;1238;138977;-62
2022/11/19 17:49:57;;;;;;;37.60;21.60;;;;;;;1.35;60.25;98827.13;226691;1234;138179;-61
2022/11/19 17:55:12;;;;;;;32.20;18.40;;;;;;;1.35;60.35;98828.36;227448;1242;138672;-63
2022/11/19 18:00:15;;;;;;;33.90;20.40;;;;;;;1.32;60.32;98828.95;226646;1243;139371;-62
2022/11/19 18:05:22;;;;;;;42.20;21.90;;;;;;;1.30;60.39;98828.69;226740;1252;138506;-63
2022/11/19 18:10:25;;;;;;;39.30;22.40;;;;;;;1.27;60.43;98827.35;227411;1233;139443;-63
2022/11/19 18:15:29;;;;;;;46.30;27.30;;;;;;;1.24;60.42;98822.58;227516;1227;138737;-63
2022/11/19 18:20:32;;;;;;;37.00;21.70;;;;;;;1.23;60.58;98820.34;226597;1241;139145;-64
2022/11/19 18:25:35;;;;;;;39.60;22.00;;;;;;;1.20;60.70;98817.25;226703;1249;139420;-63
2022/11/19 18:30:38;;;;;;;94.50;57.00;;;;;;;1.28;62.39;98816.49;226520;1245;139597;-63
2022/11/19 18:35:41;;;;;;;42.40;24.30;;;;;;;1.39;62.75;98812.16;227661;1242;138574;-63
2022/11/19 18:40:48;;;;;;;42.20;23.30;;;;;;;1.33;61.21;98812.16;226665;1240;139087;-63
2022/11/19 18:45:51;;;;;;;37.50;23.00;;;;;;;1.23;61.01;98816.98;226705;1248;139042;-63
2022/11/19 18:50:54;;;;;;;38.00;22.80;;;;;;;1.14;60.89;98821.59;226773;1249;138757;-62
2022/11/19 18:55:57;;;;;;;38.00;23.50;;;;;;;1.03;61.00;98823.65;226532;1243;138253;-63
2022/11/19 19:01:05;;;;;;;40.00;23.50;;;;;;;0.95;61.31;98822.45;227614;1232;138282;-64
2022/11/19 19:06:08;;;;;;;39.90;22.50;;;;;;;0.86;61.44;98826.38;227579;1242;139001;-64
2022/11/19 19:16:33;;;;;;;41.30;24.20;;;;;;;0.79;61.67;98815.75;227558;1231;139474;-64
2022/11/19 19:21:37;;;;;;;40.40;24.20;;;;;;;0.74;61.90;98814.84;227499;1237;139151;-64
2022/11/19 19:26:40;;;;;;;41.90;25.10;;;;;;;0.70;61.98;98806.36;227428;1234;139132;-63
2022/11/19 19:31:43;;;;;;;42.90;24.40;;;;;;;0.69;62.16;98804.13;226478;1243;138406;-63
2022/11/19 19:36:46;;;;;;;42.30;24.70;;;;;;;0.68;62.03;98806.23;227535;1242;139544;-63
2022/11/19 19:41:55;;;;;;;55.40;36.40;;;;;;;0.75;63.90;98809.21;226578;1238;138822;-67
2022/11/19 19:46:58;;;;;;;48.30;28.00;;;;;;;0.90;63.24;98810.20;227642;1241;140156;-65
2022/11/19 19:52:01;;;;;;;41.00;25.40;;;;;;;0.98;61.78;98809.13;227521;1248;139413;-65
2022/11/19 19:57:06;;;;;;;45.00;26.60;;;;;;;0.93;61.68;98815.35;226879;1240;138969;-64
2022/11/19 20:02:09;;;;;;;43.10;26.40;;;;;;;0.89;61.58;98807.59;227705;1234;139903;-64
2022/11/19 20:07:13;;;;;;;45.80;26.30;;;;;;;0.82;61.69;98808.33;226971;1255;141544;-63
2022/11/19 20:12:16;;;;;;;47.10;26.00;;;;;;;0.71;61.62;98806.88;226818;1245;139177;-65
2022/11/19 20:17:20;;;;;;;45.10;26.40;;;;;;;0.65;61.78;98806.13;227715;1231;139042;-64
2022/11/19 20:22:23;;;;;;;44.70;26.10;;;;;;;0.56;61.82;98807.24;226799;1237;139275;-63
2022/11/19 20:27:26;;;;;;;50.40;28.20;;;;;;;0.49;61.95;98813.02;227656;1246;138938;-66
2022/11/19 20:32:29;;;;;;;49.90;27.50;;;;;;;0.42;62.29;98806.70;226809;1238;139482;-67
2022/11/19 20:37:32;;;;;;;49.30;28.10;;;;;;;0.38;62.46;98803.86;227661;1235;139168;-65
2022/11/19 20:47:57;;;;;;;53.70;29.40;;;;;;;0.29;62.64;98807.23;227862;1229;138934;-65
2022/11/19 20:53:00;;;;;;;48.60;28.00;;;;;;;0.28;62.51;98794.36;227670;1227;139466;-67
2022/11/19 20:58:04;;;;;;;51.30;30.10;;;;;;;0.22;62.58;98789.95;226913;1250;139025;-64
2022/11/19 21:03:08;;;;;;;51.20;29.00;;;;;;;0.16;62.57;98787.48;226847;1251;138323;-65
2022/11/19 21:08:12;;;;;;;53.70;30.20;;;;;;;0.11;62.65;98787.76;226819;1253;139150;-64
2022/11/19 21:13:15;;;;;;;52.70;30.30;;;;;;;0.07;62.66;98794.50;226725;1240;139237;-64
2022/11/19 21:18:19;;;;;;;51.80;29.80;;;;;;;0.03;62.87;98802.95;226625;1248;139531;-65
2022/11/19 21:23:27;;;;;;;52.40;29.60;;;;;;;-0.04;62.80;98808.36;226914;1245;138856;-64
2022/11/19 21:28:30;;;;;;;48.20;28.50;;;;;;;-0.10;62.84;98811.63;226573;1245;139133;-66
2022/11/19 21:33:34;;;;;;;50.70;28.30;;;;;;;-0.19;63.02;98818.10;226576;1234;139808;-63
2022/11/19 21:38:38;;;;;;;53.30;30.40;;;;;;;-0.25;63.11;98823.48;226871;1253;138822;-64
2022/11/19 21:43:41;;;;;;;58.70;33.00;;;;;;;-0.27;63.16;98816.02;227578;1246;139459;-64
2022/11/19 21:48:44;;;;;;;53.90;31.30;;;;;;;-0.29;63.39;98801.77;227489;1231;139343;-65
2022/11/19 21:53:47;;;;;;;55.80;30.60;;;;;;;-0.23;63.47;98798.66;227814;1233;139143;-64
2022/11/19 21:58:50;;;;;;;57.00;31.50;;;;;;;-0.21;63.49;98806.83;226846;1234;139517;-65
2022/11/19 22:03:53;;;;;;;58.70;31.90;;;;;;;-0.25;63.34;98819.98;226843;1240;139933;-63
2022/11/19 22:08:56;;;;;;;52.10;30.00;;;;;;;-0.25;63.56;98828.16;226795;1251;139144;-65
2022/11/19 22:14:05;;;;;;;55.10;31.60;;;;;;;-0.28;63.62;98829.63;226842;1248;139224;-63
2022/11/19 22:19:12;;;;;;;56.90;30.70;;;;;;;-0.31;63.64;98823.41;226861;1247;141621;-64
2022/11/19 22:24:15;;;;;;;52.30;30.50;;;;;;;-0.32;63.76;98817.87;227700;1229;139449;-63
2022/11/19 22:29:18;;;;;;;56.70;33.00;;;;;;;-0.35;63.74;98812.70;226874;1252;139138;-66
2022/11/19 22:34:22;;;;;;;54.20;31.50;;;;;;;-0.35;63.78;98813.40;226706;1238;138722;-66
2022/11/19 22:39:25;;;;;;;56.60;32.40;;;;;;;-0.34;63.84;98811.46;226948;1255;138833;-67
2022/11/19 22:44:28;;;;;;;60.60;33.60;;;;;;;-0.34;63.64;98802.57;226811;1255;139166;-67
2022/11/19 22:49:31;;;;;;;58.60;33.10;;;;;;;-0.35;63.71;98803.30;227703;1235;139545;-65
2022/11/19 22:54:34;;;;;;;59.30;34.20;;;;;;;-0.38;63.68;98806.14;226885;1237;139369;-64
2022/11/19 22:59:43;;;;;;;66.40;34.80;;;;;;;-0.37;63.54;98807.17;227111;1255;140331;-63
2022/11/19 23:04:46;;;;;;;62.40;34.00;;;;;;;-0.44;63.32;98814.11;227725;1233;139406;-65
2022/11/19 23:09:49;;;;;;;62.50;34.50;;;;;;;-0.50;63.38;98818.94;227730;1248;139548;-67
2022/11/19 23:14:52;;;;;;;64.60;34.90;;;;;;;-0.56;63.38;98814.02;226909;1254;139296;-64
2022/11/19 23:19:55;;;;;;;65.30;36.50;;;;;;;-0.60;63.38;98812.20;226672;1241;139475;-64
2022/11/19 23:25:05;;;;;;;70.10;35.90;;;;;;;-0.62;63.35;98809.60;226864;1248;139326;-64
2022/11/19 23:30:08;;;;;;;70.10;36.30;;;;;;;-0.66;63.38;98805.69;227716;1233;139889;-66
2022/11/19 23:35:11;;;;;;;69.70;36.10;;;;;;;-0.68;63.41;98806.27;227023;1234;139450;-69
2022/11/19 23:40:15;;;;;;;70.70;35.70;;;;;;;-0.69;63.66;98804.88;226632;1255;139380;-65
2022/11/19 23:45:18;;;;;;;69.90;36.20;;;;;;;-0.70;63.54;98803.50;227659;1234;139168;-67
2022/11/19 23:50:20;;;;;;;69.60;36.30;;;;;;;-0.74;63.53;98790.52;226868;1250;139689;-69
2022/11/19 23:55:23;;;;;;;73.90;37.10;;;;;;;-0.73;63.71;98795.03;226884;1242;139040;-67
